Deelen, Nederland

8:18 AM CEST op 23 september 2014 (GMT +0200)
Plattenburg | Change Station
CLOSE
Current Station
Persoonlijk weerstation
Location: Arnhem, GELDERLAND
Geometrische hoogte: 59 ft
Nabije weerstations

Hoogte 59 ft 51.99 °N, 5.94 °E | Updated 12 minutes ago

Partly Cloudy
Gedeeltelijk bewolkt
53.2 °F
Voelt als 53.2 °F
N
-
Wind Variabel Wind van noord

Vandaag
Hoog -- | Laag -- °F
--% Kans op neerslag
Gisteren
Hoog -- | Laag -- °F
Precip. -- inches
7:23 AM 7:32 PM
Afnemende halvemaan, 1% visible
Druk 30.15 inches
Zicht 3.7 mijlen
Wolken Gering 11000 ft
Dauwpunt 44 °F
Vochtigheid 77%
Neerslag -999.00 inches
Dikte sneeuw Niet beschikbaar.
UV 0 van de 12
Pollen Niet beschikbaar.
Luchtkwaliteit Niet beschikbaar.
Flu Activity Niet beschikbaar.
METAR EHDL 230555Z AUTO 12001KT 6000 BR FEW110 05/05 Q1021 WHT

More Conditions Fewer Conditions

Druk 30.15 inches
Zicht 3.7 mijlen
Wolken Gering 11000 ft
Dauwpunt 44 °F
Vochtigheid 77%
Neerslag -999.00 inches
Dikte sneeuw Niet beschikbaar.
UV 0 van de 12
Pollen Niet beschikbaar.
Luchtkwaliteit Niet beschikbaar.
Flu Activity Niet beschikbaar.
METAR EHDL 230555Z AUTO 12001KT 6000 BR FEW110 05/05 Q1021 WHT

More Conditions Fewer Conditions

10-Day Weather Forecast

Almanac

Astronomie

Sep. 23, 2014 Opkomst Ondergang
Werkelijke tijd 7:23 AM CEST 7:32 PM CEST
Burgerlijke schemering 6:50 AM CEST 8:06 PM CEST
Nautische schemering 6:10 AM CEST 8:46 PM CEST
Astronomische schemering 5:28 AM CEST 9:27 PM CEST
Maan 6:30 AM CEST 7:03 PM CEST
Golflengte van het zichtbare licht 13h 16m
Daglengte
12h 09m
Tomorrow will be 3m 59s shorter.
Afnemende halvemaan, 1% of the Moon is Illuminated
Vandaag
Afnemende halvemaan
sep 24
Nieuw
oktober 1
Eerste kwartier
oktober 8
Volle maan
oktober 15
Laatste kwartier

Extremen gisteren

Country Highs Country Lows

Community

WunderPhotos

Upload Photos

1,755,608 foto’s ge-upload!

Nearby

Luchtkwaliteit

Not available.

Dikte sneeuw

Not available.

Aardbevingen

Stad Distance Mag. Time & Date
No recent earthquake activity has been reported nearby.
Minimum magnitude displayed is 2.5.

Watertemperatuur langs de kust

Plaats Temperatuur
Geen meldingen van stations

Nabije weerstations